createdAt,value
2023-05-23T00:01:07.238Z,12.10
2023-05-23T00:03:55.842Z,6.15
2023-05-23T00:06:44.889Z,8.90
2023-05-23T00:09:30.596Z,10.75
2023-05-23T00:12:15.914Z,6.20
2023-05-23T00:15:01.342Z,7.65
2023-05-23T00:17:47.604Z,9.10
2023-05-23T00:20:35.140Z,6.57
2023-05-23T00:27:22.144Z,8.95
2023-05-23T00:31:00.171Z,8.43
2023-05-23T00:33:48.939Z,12.43
2023-05-23T00:36:37.785Z,8.43
2023-05-23T00:39:23.463Z,5.78
2023-05-23T00:42:23.559Z,8.02
2023-05-23T00:45:49.447Z,5.68
2023-05-23T00:48:36.366Z,10.73
2023-05-23T00:55:16.446Z,8.30
2023-05-23T00:58:02.460Z,6.20
2023-05-23T01:00:50.736Z,11.18
2023-05-23T01:03:36.751Z,6.53
2023-05-23T01:06:22.107Z,8.20
2023-05-23T01:09:09.583Z,4.97
2023-05-23T01:12:07.290Z,7.13
2023-05-23T01:15:06.496Z,8.50
2023-05-23T01:17:59.294Z,11.20
2023-05-23T01:20:50.650Z,7.53
2023-05-23T01:24:00.173Z,8.45
2023-05-23T01:27:01.952Z,8.83
2023-05-23T01:29:53.174Z,8.10
2023-05-23T01:32:40.127Z,8.20
2023-05-23T01:35:29.357Z,11.13
2023-05-23T01:38:14.512Z,8.57
2023-05-23T01:40:59.929Z,7.07
2023-05-23T01:43:45.081Z,7.60
2023-05-23T01:46:31.745Z,8.77
2023-05-23T01:49:18.460Z,8.50
2023-05-23T01:52:05.620Z,9.88
2023-05-23T01:54:52.941Z,6.40
2023-05-23T01:57:39.214Z,8.48
2023-05-23T02:00:25.023Z,7.65
2023-05-23T02:03:11.812Z,9.48
2023-05-23T02:05:57.577Z,6.70
2023-05-23T02:08:43.191Z,7.68
2023-05-23T02:11:28.535Z,12.82
2023-05-23T02:14:13.754Z,7.38
2023-05-23T02:17:00.459Z,7.75
2023-05-23T02:19:45.982Z,10.60
2023-05-23T02:22:31.524Z,13.80
2023-05-23T02:25:16.733Z,6.57
2023-05-23T02:28:02.298Z,8.80
2023-05-23T02:30:47.723Z,7.55
2023-05-23T02:33:33.139Z,7.55
2023-05-23T02:36:18.505Z,7.63
2023-05-23T02:39:04.005Z,8.50
2023-05-23T02:41:49.453Z,8.82
2023-05-23T02:44:35.116Z,11.32
2023-05-23T02:47:20.755Z,10.48
2023-05-23T02:50:07.780Z,9.70
2023-05-23T02:52:53.851Z,6.72
2023-05-23T02:55:40.371Z,11.90
2023-05-23T02:58:25.850Z,8.45
2023-05-23T03:01:11.977Z,9.70
2023-05-23T03:03:57.657Z,12.00
2023-05-23T03:06:44.606Z,11.45
2023-05-23T03:09:32.173Z,11.50
2023-05-23T03:12:17.736Z,10.95
2023-05-23T03:15:03.295Z,8.70
2023-05-23T03:17:49.390Z,6.00
2023-05-23T03:20:35.692Z,9.80
2023-05-23T03:23:21.024Z,7.75
2023-05-23T03:26:06.816Z,9.23
2023-05-23T03:28:52.190Z,12.80
2023-05-23T03:31:38.328Z,9.23
2023-05-23T03:34:23.914Z,8.52
2023-05-23T03:37:09.672Z,10.43
2023-05-23T03:39:54.872Z,7.97
2023-05-23T03:42:40.269Z,9.13
2023-05-23T03:45:27.928Z,10.23
2023-05-23T03:48:13.263Z,9.25
2023-05-23T03:50:59.889Z,12.98
2023-05-23T03:53:45.286Z,9.27
2023-05-23T03:56:30.566Z,11.65
2023-05-23T03:59:15.826Z,8.77
2023-05-23T04:02:01.348Z,9.48
2023-05-23T04:04:47.010Z,9.93
2023-05-23T04:07:34.829Z,10.23
2023-05-23T04:10:20.040Z,8.15
2023-05-23T04:13:06.614Z,8.27
2023-05-23T04:15:52.703Z,13.48
2023-05-23T04:18:39.190Z,8.55
2023-05-23T04:21:25.548Z,14.25
2023-05-23T04:24:23.644Z,9.27
2023-05-23T04:27:09.042Z,15.52
2023-05-23T04:29:56.496Z,9.85
2023-05-23T04:32:41.927Z,10.18
2023-05-23T04:35:28.403Z,9.25
2023-05-23T04:38:14.240Z,10.05
2023-05-23T04:40:59.887Z,8.55
2023-05-23T04:44:18.018Z,8.45
2023-05-23T04:47:28.074Z,12.82
2023-05-23T04:50:24.652Z,11.38
2023-05-23T04:53:09.996Z,8.25
2023-05-23T04:55:56.509Z,9.45
2023-05-23T04:58:42.423Z,9.27
2023-05-23T05:01:29.777Z,8.95
2023-05-23T05:04:16.110Z,11.57
2023-05-23T05:07:04.174Z,10.57
2023-05-23T05:09:49.510Z,14.10
2023-05-23T05:12:36.039Z,9.25
2023-05-23T05:15:21.366Z,15.10
2023-05-23T05:18:12.196Z,15.90
2023-05-23T05:20:58.624Z,11.45
2023-05-23T05:23:44.118Z,7.82
2023-05-23T05:26:29.723Z,9.98
2023-05-23T05:29:16.309Z,12.82
2023-05-23T05:32:03.375Z,11.85
2023-05-23T05:34:49.435Z,10.30
2023-05-23T05:37:36.351Z,12.68
2023-05-23T05:40:22.233Z,8.55
2023-05-23T05:43:07.408Z,15.43
2023-05-23T05:45:53.271Z,12.90
2023-05-23T05:48:38.629Z,11.98
2023-05-23T05:51:26.762Z,12.55
2023-05-23T05:54:13.136Z,9.75
2023-05-23T05:56:58.519Z,10.50
2023-05-23T05:59:44.277Z,14.98
2023-05-23T06:02:31.486Z,13.50
2023-05-23T06:05:16.855Z,12.30
2023-05-23T06:08:04.042Z,11.32
2023-05-23T06:10:49.438Z,12.80
2023-05-23T06:13:35.241Z,19.67
2023-05-23T06:16:20.969Z,11.35
2023-05-23T06:19:08.423Z,21.80
2023-05-23T06:21:55.634Z,18.02
2023-05-23T06:24:41.756Z,16.88
2023-05-23T06:27:27.111Z,15.85
2023-05-23T06:30:13.404Z,10.52
2023-05-23T06:32:58.713Z,11.93
2023-05-23T06:35:44.270Z,17.27
2023-05-23T06:38:33.489Z,25.13
2023-05-23T06:41:18.798Z,21.60
2023-05-23T06:44:03.934Z,27.65
2023-05-23T06:46:49.959Z,34.00
2023-05-23T06:49:35.309Z,35.25
2023-05-23T06:52:20.722Z,24.08
2023-05-23T06:55:06.877Z,19.98
2023-05-23T06:57:52.305Z,18.35
2023-05-23T07:00:39.727Z,14.75
2023-05-23T07:03:41.767Z,15.75
2023-05-23T07:06:27.590Z,12.48
2023-05-23T07:09:13.088Z,13.48
2023-05-23T07:11:59.439Z,15.70
2023-05-23T07:14:44.874Z,9.63
2023-05-23T07:17:30.280Z,13.50
2023-05-23T07:20:16.902Z,16.17
2023-05-23T07:23:03.503Z,12.02
2023-05-23T07:26:01.238Z,15.35
2023-05-23T07:28:55.090Z,11.05
2023-05-23T07:31:41.262Z,21.75
2023-05-23T07:34:28.282Z,16.70
2023-05-23T07:37:16.361Z,15.85
2023-05-23T07:40:07.727Z,12.85
2023-05-23T07:42:54.157Z,13.10
2023-05-23T07:45:39.661Z,13.98
2023-05-23T07:48:27.073Z,14.50
2023-05-23T07:51:12.597Z,11.27
2023-05-23T07:53:58.281Z,51.15
2023-05-23T07:56:43.945Z,12.68
2023-05-23T07:59:30.246Z,11.52
2023-05-23T08:02:16.479Z,12.45
2023-05-23T08:05:02.746Z,10.25
2023-05-23T08:07:48.448Z,19.23
2023-05-23T08:10:33.749Z,11.48
2023-05-23T08:13:28.418Z,11.77
2023-05-23T08:16:35.298Z,13.68
2023-05-23T08:19:21.194Z,19.30
2023-05-23T08:22:07.692Z,12.27
2023-05-23T08:24:52.685Z,9.10
2023-05-23T08:27:38.683Z,15.73
2023-05-23T08:30:36.737Z,13.88
2023-05-23T08:33:22.647Z,12.40
2023-05-23T08:36:11.563Z,11.90
2023-05-23T08:38:57.137Z,11.68
2023-05-23T08:41:52.699Z,9.50
2023-05-23T08:44:38.024Z,9.75
2023-05-23T08:47:23.898Z,10.85
2023-05-23T08:50:16.083Z,12.27
2023-05-23T08:53:03.227Z,10.60
2023-05-23T08:55:51.524Z,9.82
2023-05-23T08:58:41.851Z,10.85
2023-05-23T09:01:29.387Z,14.00
2023-05-23T09:04:17.635Z,12.70
2023-05-23T09:07:16.892Z,13.20
2023-05-23T09:10:07.074Z,13.35
2023-05-23T09:12:52.865Z,12.30
2023-05-23T09:15:38.638Z,11.05
2023-05-23T09:18:33.185Z,10.88
2023-05-23T09:21:18.899Z,11.82
2023-05-23T09:24:34.193Z,20.88
2023-05-23T09:27:19.885Z,11.63
2023-05-23T09:30:12.721Z,13.98
2023-05-23T09:33:03.916Z,9.93
2023-05-23T09:35:51.430Z,6.82
2023-05-23T09:38:46.209Z,10.63
2023-05-23T09:41:35.501Z,10.73
2023-05-23T09:47:08.327Z,14.45
2023-05-23T09:49:53.564Z,13.00
2023-05-23T09:52:39.921Z,9.43
2023-05-23T09:55:25.332Z,10.90
2023-05-23T09:58:11.285Z,9.00
2023-05-23T10:00:58.075Z,7.38
2023-05-23T10:03:55.947Z,15.75
2023-05-23T10:06:48.882Z,14.27
2023-05-23T10:09:38.018Z,9.45
2023-05-23T10:12:32.760Z,12.55
2023-05-23T10:15:18.988Z,12.32
2023-05-23T10:18:14.958Z,19.98
2023-05-23T10:21:09.494Z,11.88
2023-05-23T10:23:55.934Z,11.35
2023-05-23T10:26:41.376Z,12.43
2023-05-23T10:29:27.174Z,16.83
2023-05-23T10:32:15.003Z,11.50
2023-05-23T10:35:23.904Z,17.13
2023-05-23T10:38:24.431Z,12.47
2023-05-23T10:41:16.532Z,14.40
2023-05-23T10:44:13.003Z,14.50
2023-05-23T10:47:03.835Z,15.95
2023-05-23T10:49:54.413Z,13.38
2023-05-23T10:52:41.668Z,15.52
2023-05-23T10:55:31.124Z,14.82
2023-05-23T10:58:20.468Z,18.40
2023-05-23T11:01:08.756Z,16.13
2023-05-23T11:03:56.015Z,15.98
2023-05-23T11:06:44.447Z,17.73
2023-05-23T11:09:30.022Z,16.65
2023-05-23T11:12:15.637Z,15.57
2023-05-23T11:15:01.222Z,23.08
2023-05-23T11:17:54.976Z,25.63
2023-05-23T11:20:41.507Z,23.92
2023-05-23T11:23:41.797Z,23.98
2023-05-23T11:26:32.016Z,20.10
2023-05-23T11:29:17.651Z,26.00
2023-05-23T11:32:15.982Z,31.02
2023-05-23T11:37:49.451Z,24.98
2023-05-23T11:40:39.902Z,21.90
2023-05-23T11:43:26.022Z,24.60
2023-05-23T11:46:11.597Z,23.00
2023-05-23T11:48:57.150Z,27.88
2023-05-23T11:51:42.390Z,26.83
2023-05-23T11:54:28.287Z,25.73
2023-05-23T11:57:14.365Z,22.63
2023-05-23T11:59:59.739Z,25.23
2023-05-23T12:02:46.243Z,26.55
2023-05-23T12:05:31.689Z,30.02
2023-05-23T12:08:16.969Z,28.73
2023-05-23T12:11:02.979Z,21.40
2023-05-23T12:13:48.975Z,25.75
2023-05-23T12:16:35.123Z,25.83
2023-05-23T12:19:20.922Z,22.95
2023-05-23T12:22:07.896Z,24.40
2023-05-23T12:24:55.605Z,27.05
2023-05-23T12:27:44.088Z,23.92
2023-05-23T12:30:29.386Z,27.58
2023-05-23T12:33:15.027Z,30.95
2023-05-23T12:36:00.658Z,22.73
2023-05-23T12:38:45.856Z,26.65
2023-05-23T12:41:32.721Z,25.02
2023-05-23T12:44:18.313Z,27.38
2023-05-23T12:47:04.339Z,22.85
2023-05-23T12:49:49.940Z,21.23
2023-05-23T12:52:36.696Z,19.40
2023-05-23T12:55:22.169Z,23.02
2023-05-23T12:58:07.489Z,20.95
2023-05-23T13:00:52.952Z,19.23
2023-05-23T13:03:38.593Z,19.52
2023-05-23T13:06:23.894Z,19.95
2023-05-23T13:09:09.286Z,24.55
2023-05-23T13:11:55.049Z,21.85
2023-05-23T13:14:40.432Z,24.15
2023-05-23T13:17:25.836Z,30.38
2023-05-23T13:20:11.458Z,25.88
2023-05-23T13:23:00.874Z,27.52
2023-05-23T13:25:46.956Z,28.65
2023-05-23T13:28:33.410Z,26.38
2023-05-23T13:31:18.988Z,25.90
2023-05-23T13:34:04.259Z,26.20
2023-05-23T13:36:49.356Z,29.63
2023-05-23T13:39:34.892Z,30.15
2023-05-23T13:42:20.403Z,33.38
2023-05-23T13:45:06.530Z,29.38
2023-05-23T13:47:52.359Z,30.50
2023-05-23T13:50:37.822Z,35.17
2023-05-23T13:53:23.362Z,28.42
2023-05-23T13:56:09.450Z,34.10
2023-05-23T13:58:54.864Z,30.83
2023-05-23T14:01:40.850Z,30.83
2023-05-23T14:04:26.239Z,30.45
2023-05-23T14:07:11.388Z,29.52
2023-05-23T14:09:57.525Z,30.98
2023-05-23T14:12:43.083Z,28.25
2023-05-23T14:15:28.551Z,33.25
2023-05-23T14:18:13.828Z,31.73
2023-05-23T14:20:59.030Z,32.17
2023-05-23T14:23:44.396Z,33.45
2023-05-23T14:26:30.187Z,45.15
2023-05-23T14:29:16.063Z,31.75
2023-05-23T14:32:02.762Z,35.88
2023-05-23T14:34:48.194Z,37.40
2023-05-23T14:37:33.600Z,31.42
2023-05-23T14:40:19.111Z,33.92
2023-05-23T14:43:05.068Z,29.25
2023-05-23T14:45:50.332Z,28.65
2023-05-23T14:48:35.681Z,29.38
2023-05-23T14:51:34.726Z,32.22
2023-05-23T14:54:26.939Z,29.15
2023-05-23T14:57:12.258Z,24.10
2023-05-23T14:59:57.402Z,25.05
2023-05-23T15:02:42.682Z,27.67
2023-05-23T15:05:27.895Z,20.73
2023-05-23T15:08:13.602Z,20.20
2023-05-23T15:10:59.422Z,13.60
2023-05-23T15:13:45.075Z,15.57
2023-05-23T15:16:33.413Z,12.98
2023-05-23T15:19:19.268Z,10.75
2023-05-23T15:22:05.201Z,14.38
2023-05-23T15:24:50.464Z,12.30
2023-05-23T15:27:36.153Z,12.82
2023-05-23T15:30:24.317Z,12.35
2023-05-23T15:33:09.732Z,21.75
2023-05-23T15:35:55.215Z,13.38
2023-05-23T15:38:40.462Z,15.50
2023-05-23T15:41:26.557Z,14.95
2023-05-23T15:44:14.709Z,17.08
2023-05-23T15:47:00.235Z,12.68
2023-05-23T15:49:45.585Z,16.23
2023-05-23T15:52:30.664Z,11.98
2023-05-23T15:55:15.919Z,11.93
2023-05-23T15:58:01.046Z,13.63
2023-05-23T16:00:46.443Z,16.15
2023-05-23T16:03:32.011Z,13.50
2023-05-23T16:06:17.337Z,15.57
2023-05-23T16:09:03.149Z,18.33
2023-05-23T16:11:48.765Z,16.92
2023-05-23T16:14:33.920Z,20.67
2023-05-23T16:17:19.416Z,15.50
2023-05-23T16:20:05.195Z,16.77
2023-05-23T16:22:51.152Z,15.63
2023-05-23T16:25:36.211Z,16.45
2023-05-23T16:28:21.779Z,13.73
2023-05-23T16:31:07.277Z,13.48
2023-05-23T16:33:52.686Z,16.63
2023-05-23T16:36:38.037Z,14.55
2023-05-23T16:39:23.299Z,14.55
2023-05-23T16:42:08.700Z,17.50
2023-05-23T16:44:54.002Z,14.40
2023-05-23T16:47:39.138Z,15.65
2023-05-23T16:50:24.500Z,13.68
2023-05-23T16:53:09.665Z,15.07
2023-05-23T16:55:54.909Z,17.35
2023-05-23T16:58:41.687Z,15.75
2023-05-23T17:01:29.539Z,14.77
2023-05-23T17:04:15.058Z,13.90
2023-05-23T17:07:00.428Z,8.25
2023-05-23T17:09:46.017Z,9.65
2023-05-23T17:12:31.760Z,15.05
2023-05-23T17:15:16.849Z,8.82
2023-05-23T17:18:02.487Z,10.85
2023-05-23T17:20:48.085Z,7.28
2023-05-23T17:23:33.573Z,11.65
2023-05-23T17:26:19.805Z,8.73
2023-05-23T17:29:05.345Z,8.75
2023-05-23T17:31:50.935Z,5.93
2023-05-23T17:34:36.424Z,7.32
2023-05-23T17:37:21.796Z,5.97
2023-05-23T17:40:07.610Z,9.90
2023-05-23T17:42:53.002Z,7.00
2023-05-23T17:45:38.997Z,8.30
2023-05-23T17:48:38.289Z,9.30
2023-05-23T17:51:29.827Z,7.80
2023-05-23T17:54:15.147Z,10.65
2023-05-23T17:57:00.415Z,7.82
2023-05-23T17:59:46.026Z,9.98
2023-05-23T18:02:31.436Z,10.07
2023-05-23T18:05:19.685Z,7.25
2023-05-23T18:08:05.410Z,7.35
2023-05-23T18:10:51.187Z,8.32
2023-05-23T18:13:36.378Z,9.38
2023-05-23T18:16:22.182Z,10.40
2023-05-23T18:19:07.625Z,10.38
2023-05-23T18:21:53.636Z,10.57
2023-05-23T18:24:40.426Z,18.25
2023-05-23T18:27:25.994Z,17.23
2023-05-23T18:30:11.980Z,15.95
2023-05-23T18:32:58.806Z,11.15
2023-05-23T18:35:44.464Z,12.10
2023-05-23T18:38:30.885Z,12.88
2023-05-23T18:41:16.448Z,16.65
2023-05-23T18:44:02.077Z,10.30
2023-05-23T18:46:47.254Z,10.98
2023-05-23T18:49:32.665Z,11.38
2023-05-23T18:52:18.037Z,17.40
2023-05-23T18:55:03.738Z,11.68
2023-05-23T18:57:48.972Z,13.07
2023-05-23T19:00:34.355Z,13.23
2023-05-23T19:03:20.077Z,14.50
2023-05-23T19:06:07.029Z,10.88
2023-05-23T19:08:52.384Z,19.95
2023-05-23T19:11:37.928Z,17.83
2023-05-23T19:14:23.599Z,22.08
2023-05-23T19:17:09.409Z,18.70
2023-05-23T19:19:55.099Z,14.95
2023-05-23T19:22:51.037Z,11.73
2023-05-23T19:25:37.803Z,13.38
2023-05-23T19:28:22.897Z,18.38
2023-05-23T19:31:08.099Z,16.15
2023-05-23T19:33:53.251Z,12.02
2023-05-23T19:36:38.487Z,11.77
2023-05-23T19:39:23.707Z,11.07
2023-05-23T19:42:08.971Z,7.63
2023-05-23T19:44:54.650Z,19.30
2023-05-23T19:47:40.755Z,13.70
2023-05-23T19:50:26.014Z,14.20
2023-05-23T19:53:11.473Z,12.50
2023-05-23T19:55:57.553Z,16.10
2023-05-23T19:58:43.211Z,12.48
2023-05-23T20:01:30.662Z,14.82
2023-05-23T20:04:16.444Z,17.02
2023-05-23T20:07:01.668Z,17.60
2023-05-23T20:09:46.869Z,14.40
2023-05-23T20:12:32.221Z,19.48
2023-05-23T20:15:24.591Z,18.55
2023-05-23T20:18:17.004Z,13.80
2023-05-23T20:21:05.047Z,13.43
2023-05-23T20:23:51.060Z,15.38
2023-05-23T20:26:36.231Z,20.38
2023-05-23T20:29:21.509Z,20.92
2023-05-23T20:32:06.840Z,17.67
2023-05-23T20:34:52.722Z,15.77
2023-05-23T20:37:39.100Z,24.17
2023-05-23T20:40:25.660Z,16.85
2023-05-23T20:43:11.197Z,20.27
2023-05-23T20:45:57.243Z,19.58
2023-05-23T20:48:42.586Z,19.45
2023-05-23T20:51:27.811Z,24.40
2023-05-23T20:54:13.043Z,24.13
2023-05-23T20:56:58.856Z,16.40
2023-05-23T20:59:44.269Z,18.90
2023-05-23T21:02:29.491Z,21.42
2023-05-23T21:05:14.682Z,18.60
2023-05-23T21:07:59.765Z,17.00
2023-05-23T21:10:49.108Z,13.93
2023-05-23T21:13:37.708Z,18.63
2023-05-23T21:16:25.037Z,14.77
2023-05-23T21:19:10.717Z,15.93
2023-05-23T21:21:56.190Z,17.02
2023-05-23T21:24:41.821Z,17.42
2023-05-23T21:27:29.035Z,12.95
2023-05-23T21:30:15.288Z,21.73
2023-05-23T21:33:00.556Z,21.38
2023-05-23T21:35:45.947Z,15.40
2023-05-23T21:38:31.254Z,21.95
2023-05-23T21:41:16.602Z,17.08
2023-05-23T21:44:01.760Z,22.02
2023-05-23T21:46:47.427Z,20.83
2023-05-23T21:49:35.091Z,20.17
2023-05-23T21:52:20.850Z,18.35
2023-05-23T21:55:06.421Z,16.55
2023-05-23T21:57:51.376Z,19.42
2023-05-23T22:00:36.971Z,17.02
2023-05-23T22:03:22.193Z,18.00
2023-05-23T22:06:07.601Z,17.17
2023-05-23T22:08:53.230Z,18.73
2023-05-23T22:11:38.877Z,27.98
2023-05-23T22:14:24.402Z,19.75
2023-05-23T22:17:09.945Z,18.42
2023-05-23T22:19:58.000Z,19.65
2023-05-23T22:22:43.197Z,19.42
2023-05-23T22:25:32.691Z,19.80
2023-05-23T22:28:18.033Z,17.63
2023-05-23T22:31:03.410Z,20.30
2023-05-23T22:33:48.480Z,21.85
2023-05-23T22:36:34.080Z,26.50
2023-05-23T22:39:19.361Z,17.35
2023-05-23T22:42:04.939Z,26.15
2023-05-23T22:44:50.492Z,20.48
2023-05-23T22:47:35.933Z,23.77
2023-05-23T22:50:22.471Z,19.73
2023-05-23T22:53:11.552Z,23.23
2023-05-23T22:55:57.395Z,16.23
2023-05-23T22:58:42.874Z,19.90
2023-05-23T23:01:28.411Z,14.75
2023-05-23T23:04:13.629Z,27.60
2023-05-23T23:07:02.625Z,11.40
2023-05-23T23:09:49.039Z,26.60
2023-05-23T23:12:36.915Z,22.50
2023-05-23T23:15:24.577Z,17.38
2023-05-23T23:18:10.239Z,18.00
2023-05-23T23:20:55.371Z,25.10
2023-05-23T23:23:42.394Z,17.45
2023-05-23T23:26:27.685Z,11.70
2023-05-23T23:29:13.272Z,25.13
2023-05-23T23:31:59.715Z,19.10
2023-05-23T23:34:44.871Z,20.40
2023-05-23T23:37:30.278Z,18.20
2023-05-23T23:40:15.516Z,19.30
2023-05-23T23:43:00.634Z,17.40
2023-05-23T23:45:45.672Z,26.63
2023-05-23T23:48:30.977Z,28.75
2023-05-23T23:51:16.397Z,25.10
2023-05-23T23:54:01.608Z,29.33
2023-05-23T23:56:46.901Z,18.80
2023-05-23T23:59:31.973Z,20.00
